createdAt,value
2023-03-25T00:00:13.282Z,74.29
2023-03-25T00:02:46.019Z,74.42
2023-03-25T00:05:15.571Z,72.24
2023-03-25T00:07:43.637Z,71.13
2023-03-25T00:10:12.832Z,71.46
2023-03-25T00:12:40.654Z,72.85
2023-03-25T00:15:09.496Z,74.23
2023-03-25T00:17:38.811Z,77.05
2023-03-25T00:20:10.212Z,74.68
2023-03-25T00:22:40.929Z,75.40
2023-03-25T00:25:09.839Z,74.81
2023-03-25T00:27:38.313Z,74.14
2023-03-25T00:30:06.867Z,75.76
2023-03-25T00:32:34.447Z,75.98
2023-03-25T00:35:01.925Z,75.82
2023-03-25T00:37:31.218Z,75.89
2023-03-25T00:39:58.666Z,75.49
2023-03-25T00:42:27.061Z,75.96
2023-03-25T00:44:54.583Z,75.91
2023-03-25T00:47:22.276Z,76.00
2023-03-25T00:49:51.663Z,75.63
2023-03-25T00:52:19.490Z,77.29
2023-03-25T00:54:48.206Z,78.50
2023-03-25T00:57:17.461Z,81.61
2023-03-25T00:59:44.870Z,79.76
2023-03-25T01:02:12.356Z,79.25
2023-03-25T01:04:42.088Z,78.94
2023-03-25T01:07:10.579Z,78.40
2023-03-25T01:09:39.590Z,79.67
2023-03-25T01:12:08.691Z,77.09
2023-03-25T01:14:36.286Z,77.79
2023-03-25T01:17:04.233Z,77.96
2023-03-25T01:19:31.783Z,77.73
2023-03-25T01:21:59.276Z,81.54
2023-03-25T01:24:27.153Z,80.39
2023-03-25T01:26:54.790Z,78.28
2023-03-25T01:29:24.049Z,78.77
2023-03-25T01:31:51.666Z,77.96
2023-03-25T01:34:19.163Z,76.92
2023-03-25T01:36:47.218Z,78.78
2023-03-25T01:39:17.333Z,78.24
2023-03-25T01:41:50.228Z,81.60
2023-03-25T01:44:57.164Z,78.89
2023-03-25T01:47:27.211Z,77.81
2023-03-25T01:49:54.793Z,79.14
2023-03-25T01:52:26.481Z,79.97
2023-03-25T01:54:56.089Z,82.90
2023-03-25T01:57:25.881Z,79.28
2023-03-25T01:59:55.255Z,77.64
2023-03-25T02:02:25.513Z,77.38
2023-03-25T02:05:00.660Z,78.49
2023-03-25T02:07:30.931Z,78.26
2023-03-25T02:10:02.161Z,79.29
2023-03-25T02:12:29.692Z,76.99
2023-03-25T02:14:58.489Z,79.36
2023-03-25T02:17:34.566Z,78.73
2023-03-25T02:20:35.441Z,78.41
2023-03-25T02:23:24.169Z,76.11
2023-03-25T02:26:19.401Z,79.18
2023-03-25T02:28:56.082Z,78.09
2023-03-25T02:31:50.675Z,77.59
2023-03-25T02:34:31.890Z,77.58
2023-03-25T02:37:20.409Z,76.71
2023-03-25T02:39:53.517Z,77.69
2023-03-25T02:42:27.174Z,77.22
2023-03-25T02:45:00.231Z,76.38
2023-03-25T02:47:32.707Z,77.53
2023-03-25T02:50:07.457Z,77.92
2023-03-25T02:52:39.781Z,76.55
2023-03-25T02:55:12.341Z,81.75
2023-03-25T02:57:43.834Z,78.30
2023-03-25T03:00:16.105Z,78.32
2023-03-25T03:02:46.464Z,77.79
2023-03-25T03:05:25.757Z,78.02
2023-03-25T03:08:04.910Z,77.58
2023-03-25T03:10:44.025Z,77.22
2023-03-25T03:13:23.428Z,78.67
2023-03-25T03:16:00.971Z,76.15
2023-03-25T03:18:42.321Z,76.63
2023-03-25T03:21:16.637Z,81.17
2023-03-25T03:23:52.708Z,80.42
2023-03-25T03:26:29.549Z,80.22
2023-03-25T03:29:07.816Z,80.23
2023-03-25T03:31:48.599Z,83.35
2023-03-25T03:34:34.474Z,81.27
2023-03-25T03:37:03.684Z,82.07
2023-03-25T03:39:34.803Z,81.63
2023-03-25T03:42:09.043Z,82.64
2023-03-25T03:44:39.914Z,84.57
2023-03-25T03:47:12.776Z,84.74
2023-03-25T03:49:45.416Z,82.65
2023-03-25T03:52:17.371Z,84.72
2023-03-25T03:54:49.327Z,87.33
2023-03-25T03:57:23.503Z,86.64
2023-03-25T03:59:58.534Z,86.76
2023-03-25T04:02:32.676Z,84.41
2023-03-25T04:05:00.764Z,84.56
2023-03-25T04:07:38.990Z,84.52
2023-03-25T04:10:15.043Z,85.05
2023-03-25T04:12:46.910Z,84.39
2023-03-25T04:15:15.691Z,91.09
2023-03-25T04:17:43.922Z,90.67
2023-03-25T04:20:15.720Z,87.03
2023-03-25T04:22:45.292Z,86.12
2023-03-25T04:25:14.846Z,84.45
2023-03-25T04:27:48.749Z,85.33
2023-03-25T04:30:19.132Z,85.60
2023-03-25T04:32:47.428Z,87.25
2023-03-25T04:35:15.411Z,85.76
2023-03-25T04:37:45.830Z,85.08
2023-03-25T04:40:16.264Z,85.45
2023-03-25T04:42:46.469Z,87.29
2023-03-25T04:45:16.704Z,83.99
2023-03-25T04:47:47.156Z,83.94
2023-03-25T04:50:20.979Z,83.71
2023-03-25T04:52:48.706Z,85.63
2023-03-25T04:55:17.752Z,83.28
2023-03-25T04:57:47.407Z,86.68
2023-03-25T05:00:17.143Z,86.35
2023-03-25T05:02:46.845Z,84.53
2023-03-25T05:05:18.215Z,84.96
2023-03-25T05:07:47.174Z,85.72
2023-03-25T05:10:14.945Z,82.97
2023-03-25T05:12:42.735Z,83.44
2023-03-25T05:15:13.644Z,82.86
2023-03-25T05:17:41.737Z,83.23
2023-03-25T05:20:10.589Z,82.35
2023-03-25T05:22:38.825Z,82.71
2023-03-25T05:25:07.459Z,81.59
2023-03-25T05:27:35.851Z,84.22
2023-03-25T05:30:04.256Z,83.21
2023-03-25T05:32:33.466Z,79.84
2023-03-25T05:35:01.003Z,79.91
2023-03-25T05:37:28.838Z,79.22
2023-03-25T05:39:56.545Z,78.18
2023-03-25T05:42:23.989Z,77.51
2023-03-25T05:44:52.043Z,77.21
2023-03-25T05:47:22.001Z,74.85
2023-03-25T05:49:52.008Z,72.70
2023-03-25T05:52:20.585Z,74.05
2023-03-25T05:54:51.837Z,75.80
2023-03-25T05:57:19.456Z,82.07
2023-03-25T05:59:48.000Z,81.50
2023-03-25T06:02:18.073Z,80.73
2023-03-25T06:04:46.643Z,79.14
2023-03-25T06:07:19.779Z,81.12
2023-03-25T06:09:47.766Z,79.75
2023-03-25T06:12:16.723Z,80.01
2023-03-25T06:14:45.891Z,80.05
2023-03-25T06:17:13.447Z,80.27
2023-03-25T06:19:40.857Z,82.36
2023-03-25T06:22:10.205Z,80.50
2023-03-25T06:24:39.454Z,78.59
2023-03-25T06:27:09.192Z,78.60
2023-03-25T06:29:38.584Z,77.81
2023-03-25T06:32:06.859Z,80.43
2023-03-25T06:34:34.385Z,77.62
2023-03-25T06:37:01.954Z,80.52
2023-03-25T06:39:31.115Z,80.70
2023-03-25T06:42:00.202Z,77.84
2023-03-25T06:44:28.121Z,75.61
2023-03-25T06:46:55.964Z,78.43
2023-03-25T06:49:23.733Z,77.55
2023-03-25T06:51:51.125Z,78.07
2023-03-25T06:54:18.635Z,80.53
2023-03-25T06:56:46.083Z,76.06
2023-03-25T06:59:14.874Z,77.69
2023-03-25T07:01:43.056Z,77.26
2023-03-25T07:04:10.765Z,76.05
2023-03-25T07:06:38.266Z,75.49
2023-03-25T07:09:05.881Z,76.66
2023-03-25T07:11:34.164Z,75.83
2023-03-25T07:14:02.092Z,76.60
2023-03-25T07:16:30.911Z,74.93
2023-03-25T07:18:59.051Z,78.92
2023-03-25T07:21:27.443Z,77.56
2023-03-25T07:23:54.891Z,77.71
2023-03-25T07:26:22.455Z,76.53
2023-03-25T07:28:49.854Z,78.11
2023-03-25T07:31:17.764Z,76.40
2023-03-25T07:33:46.644Z,73.92
2023-03-25T07:36:14.587Z,75.62
2023-03-25T07:38:42.031Z,74.78
2023-03-25T07:41:11.412Z,74.06
2023-03-25T07:43:39.106Z,73.15
2023-03-25T07:46:07.624Z,73.09
2023-03-25T07:48:35.054Z,73.50
2023-03-25T07:51:04.046Z,71.64
2023-03-25T07:53:31.507Z,71.29
2023-03-25T07:55:58.926Z,70.75
2023-03-25T07:58:26.399Z,69.58
2023-03-25T08:00:53.838Z,71.12
2023-03-25T08:03:21.888Z,70.24
2023-03-25T08:05:49.894Z,71.33
2023-03-25T08:08:18.933Z,68.67
2023-03-25T08:10:48.149Z,68.76
2023-03-25T08:13:15.775Z,67.94
2023-03-25T08:15:43.991Z,70.12
2023-03-25T08:18:11.469Z,69.04
2023-03-25T08:20:38.982Z,70.21
2023-03-25T08:23:10.410Z,68.61
2023-03-25T08:25:40.824Z,66.48
2023-03-25T08:28:08.622Z,65.92
2023-03-25T08:30:38.870Z,65.93
2023-03-25T08:33:07.383Z,68.65
2023-03-25T08:35:36.156Z,68.01
2023-03-25T08:38:06.673Z,69.45
2023-03-25T08:40:34.472Z,67.17
2023-03-25T08:43:05.137Z,66.36
2023-03-25T08:45:32.800Z,65.78
2023-03-25T08:48:00.258Z,64.95
2023-03-25T08:50:27.769Z,65.60
2023-03-25T08:52:57.516Z,65.60
2023-03-25T08:55:25.550Z,63.30
2023-03-25T08:57:53.112Z,66.88
2023-03-25T09:00:24.341Z,63.18
2023-03-25T09:02:52.026Z,66.61
2023-03-25T09:05:19.993Z,64.57
2023-03-25T09:07:48.076Z,65.28
2023-03-25T09:10:15.619Z,62.56
2023-03-25T09:12:43.551Z,64.07
2023-03-25T09:15:13.077Z,64.83
2023-03-25T09:17:42.861Z,63.74
2023-03-25T09:20:11.754Z,64.43
2023-03-25T09:22:40.400Z,65.21
2023-03-25T09:25:09.311Z,63.92
2023-03-25T09:27:37.199Z,67.74
2023-03-25T09:30:05.068Z,68.54
2023-03-25T09:32:32.562Z,71.63
2023-03-25T09:35:01.334Z,71.81
2023-03-25T09:37:28.841Z,72.24
2023-03-25T09:39:56.309Z,71.52
2023-03-25T09:42:55.131Z,71.00
2023-03-25T09:45:32.004Z,71.42
2023-03-25T09:48:03.864Z,66.64
2023-03-25T09:50:36.430Z,63.88
2023-03-25T09:53:08.290Z,65.80
2023-03-25T09:55:41.015Z,65.22
2023-03-25T09:58:27.344Z,62.81
2023-03-25T10:00:59.185Z,65.53
2023-03-25T10:03:32.453Z,65.55
2023-03-25T10:06:18.749Z,64.51
2023-03-25T10:08:58.420Z,63.32
2023-03-25T10:11:34.655Z,62.05
2023-03-25T10:14:11.043Z,61.65
2023-03-25T10:16:50.503Z,64.26
2023-03-25T10:19:30.881Z,61.35
2023-03-25T10:22:04.702Z,61.29
2023-03-25T10:24:35.665Z,59.46
2023-03-25T10:27:06.272Z,61.65
2023-03-25T10:29:39.805Z,62.53
2023-03-25T10:32:14.063Z,59.20
2023-03-25T10:34:47.457Z,61.76
2023-03-25T10:37:28.663Z,60.03
2023-03-25T10:39:58.708Z,61.23
2023-03-25T10:42:30.053Z,60.82
2023-03-25T10:44:57.728Z,60.01
2023-03-25T10:47:31.842Z,60.25
2023-03-25T10:50:00.379Z,59.46
2023-03-25T10:52:29.202Z,59.78
2023-03-25T10:54:58.026Z,60.49
2023-03-25T10:57:28.919Z,59.44
2023-03-25T11:00:06.470Z,59.46
2023-03-25T11:02:34.945Z,58.48
2023-03-25T11:05:05.048Z,57.69
2023-03-25T11:07:37.104Z,59.49
2023-03-25T11:10:16.861Z,60.45
2023-03-25T11:12:45.412Z,59.57
2023-03-25T11:15:15.331Z,61.33
2023-03-25T11:17:44.031Z,60.79
2023-03-25T11:20:21.419Z,58.89
2023-03-25T11:22:54.378Z,60.03
2023-03-25T11:25:26.603Z,61.27
2023-03-25T11:27:57.296Z,60.95
2023-03-25T11:30:26.961Z,64.25
2023-03-25T11:33:00.058Z,72.75
2023-03-25T11:35:30.185Z,74.36
2023-03-25T11:38:02.652Z,75.01
2023-03-25T11:40:31.821Z,71.33
2023-03-25T11:43:01.474Z,70.76
2023-03-25T11:45:35.482Z,69.07
2023-03-25T11:48:11.631Z,68.76
2023-03-25T11:50:39.409Z,67.59
2023-03-25T11:53:08.246Z,68.55
2023-03-25T11:55:44.834Z,68.16
2023-03-25T11:58:17.335Z,69.04
2023-03-25T12:00:49.796Z,69.52
2023-03-25T12:03:21.758Z,67.48
2023-03-25T12:06:00.743Z,68.02
2023-03-25T12:08:41.770Z,68.63
2023-03-25T12:11:15.316Z,65.88
2023-03-25T12:13:55.412Z,62.97
2023-03-25T12:16:31.104Z,63.58
2023-03-25T12:19:07.588Z,64.61
2023-03-25T12:21:46.699Z,64.61
2023-03-25T12:24:29.231Z,63.38
2023-03-25T12:27:11.953Z,62.04
2023-03-25T12:29:48.804Z,63.62
2023-03-25T12:32:27.904Z,60.06
2023-03-25T12:35:06.813Z,60.14
2023-03-25T12:37:49.296Z,60.54
2023-03-25T12:40:31.726Z,60.23
2023-03-25T12:43:05.655Z,59.65
2023-03-25T12:45:46.305Z,60.88
2023-03-25T12:48:24.831Z,62.19
2023-03-25T12:51:01.645Z,59.97
2023-03-25T12:53:40.861Z,60.16
2023-03-25T12:56:25.962Z,57.76
2023-03-25T12:59:17.091Z,61.68
2023-03-25T13:01:54.748Z,61.65
2023-03-25T13:04:38.918Z,62.56
2023-03-25T13:07:11.783Z,63.43
2023-03-25T13:09:52.187Z,62.71
2023-03-25T13:12:31.702Z,64.26
2023-03-25T13:15:06.576Z,71.27
2023-03-25T13:17:39.414Z,71.91
2023-03-25T13:20:10.871Z,76.14
2023-03-25T13:22:44.207Z,75.10
2023-03-25T13:25:22.632Z,74.84
2023-03-25T13:27:53.934Z,73.08
2023-03-25T13:30:32.154Z,72.59
2023-03-25T13:33:04.784Z,72.42
2023-03-25T13:35:41.520Z,74.25
2023-03-25T13:38:15.517Z,76.12
2023-03-25T13:40:49.952Z,76.15
2023-03-25T13:43:26.640Z,75.95
2023-03-25T13:46:02.978Z,74.02
2023-03-25T13:48:35.776Z,78.48
2023-03-25T13:51:04.925Z,77.16
2023-03-25T13:53:37.515Z,76.14
2023-03-25T13:56:42.525Z,74.62
2023-03-25T13:59:32.014Z,76.29
2023-03-25T14:02:17.956Z,72.83
2023-03-25T14:05:22.508Z,72.75
2023-03-25T14:08:16.118Z,70.69
2023-03-25T14:10:52.743Z,72.60
2023-03-25T14:13:26.597Z,72.17
2023-03-25T14:16:01.672Z,71.57
2023-03-25T14:18:32.181Z,73.09
2023-03-25T14:21:14.312Z,72.94
2023-03-25T14:23:44.185Z,70.23
2023-03-25T14:26:12.816Z,70.07
2023-03-25T14:28:43.777Z,71.63
2023-03-25T14:31:30.511Z,71.47
2023-03-25T14:34:23.114Z,70.71
2023-03-25T14:37:34.108Z,70.17
2023-03-25T14:40:08.890Z,76.40
2023-03-25T14:42:57.482Z,72.08
2023-03-25T14:45:42.194Z,72.00
2023-03-25T14:48:37.465Z,69.08
2023-03-25T14:51:20.939Z,69.50
2023-03-25T14:53:56.608Z,69.08
2023-03-25T14:56:26.645Z,69.09
2023-03-25T14:58:58.399Z,67.44
2023-03-25T15:01:32.347Z,68.07
2023-03-25T15:04:15.561Z,69.89
2023-03-25T15:06:43.609Z,67.38
2023-03-25T15:09:15.005Z,68.82
2023-03-25T15:11:45.167Z,68.49
2023-03-25T15:14:17.727Z,66.68
2023-03-25T15:17:05.014Z,69.31
2023-03-25T15:20:07.160Z,68.14
2023-03-25T15:22:36.361Z,66.83
2023-03-25T15:25:11.627Z,67.63
2023-03-25T15:27:53.040Z,67.15
2023-03-25T15:30:54.628Z,67.80
2023-03-25T15:33:36.763Z,68.92
2023-03-25T15:36:22.930Z,68.75
2023-03-25T15:39:10.383Z,70.76
2023-03-25T15:42:00.400Z,65.97
2023-03-25T15:45:08.727Z,67.79
2023-03-25T15:47:51.104Z,65.44
2023-03-25T15:50:43.370Z,68.08
2023-03-25T15:53:41.514Z,68.52
2023-03-25T15:56:14.422Z,67.18
2023-03-25T15:58:48.453Z,67.35
2023-03-25T16:01:22.597Z,69.10
2023-03-25T16:03:59.301Z,67.99
2023-03-25T16:06:28.393Z,70.32
2023-03-25T16:08:59.399Z,68.23
2023-03-25T16:11:29.683Z,67.97
2023-03-25T16:14:09.395Z,68.37
2023-03-25T16:16:40.598Z,77.17
2023-03-25T16:19:12.530Z,76.52
2023-03-25T16:21:40.292Z,75.71
2023-03-25T16:24:12.245Z,76.75
2023-03-25T16:26:43.408Z,78.01
2023-03-25T16:29:17.770Z,77.64
2023-03-25T16:31:53.667Z,78.44
2023-03-25T16:34:21.784Z,77.08
2023-03-25T16:36:52.230Z,77.56
2023-03-25T16:39:21.221Z,78.15
2023-03-25T16:41:51.468Z,75.92
2023-03-25T16:44:23.067Z,76.94
2023-03-25T16:46:53.498Z,77.74
2023-03-25T16:49:28.115Z,79.06
2023-03-25T16:51:57.478Z,78.12
2023-03-25T16:54:34.725Z,75.81
2023-03-25T16:57:06.861Z,77.75
2023-03-25T16:59:37.124Z,78.13
2023-03-25T17:02:23.057Z,76.17
2023-03-25T17:04:51.061Z,76.94
2023-03-25T17:07:22.534Z,76.12
2023-03-25T17:09:51.486Z,75.23
2023-03-25T17:12:22.441Z,74.60
2023-03-25T17:14:52.274Z,74.89
2023-03-25T17:17:33.021Z,75.04
2023-03-25T17:20:06.675Z,78.42
2023-03-25T17:22:36.914Z,76.30
2023-03-25T17:25:18.558Z,80.77
2023-03-25T17:27:48.548Z,80.82
2023-03-25T17:30:19.404Z,80.32
2023-03-25T17:32:47.646Z,83.40
2023-03-25T17:35:21.196Z,79.19
2023-03-25T17:37:50.330Z,76.71
2023-03-25T17:40:25.358Z,76.81
2023-03-25T17:42:54.811Z,82.59
2023-03-25T17:45:24.035Z,83.47
2023-03-25T17:47:52.208Z,81.41
2023-03-25T17:50:21.421Z,79.71
2023-03-25T17:52:49.149Z,79.43
2023-03-25T17:55:17.011Z,79.17
2023-03-25T17:57:44.570Z,81.78
2023-03-25T18:00:18.353Z,80.03
2023-03-25T18:02:46.094Z,77.67
2023-03-25T18:05:14.785Z,81.12
2023-03-25T18:07:42.772Z,79.25
2023-03-25T18:10:16.551Z,80.24
2023-03-25T18:12:44.529Z,80.89
2023-03-25T18:15:13.122Z,78.24
2023-03-25T18:17:41.977Z,81.19
2023-03-25T18:20:19.283Z,80.79
2023-03-25T18:22:46.878Z,78.79
2023-03-25T18:25:15.016Z,80.41
2023-03-25T18:27:44.170Z,81.75
2023-03-25T18:30:21.306Z,85.28
2023-03-25T18:32:50.079Z,82.43
2023-03-25T18:35:18.057Z,78.23
2023-03-25T18:37:46.565Z,78.25
2023-03-25T18:40:21.016Z,78.18
2023-03-25T18:42:48.963Z,76.80
2023-03-25T18:45:16.692Z,77.62
2023-03-25T18:47:44.181Z,78.95
2023-03-25T18:50:19.930Z,81.67
2023-03-25T18:52:47.387Z,79.41
2023-03-25T18:55:14.877Z,81.78
2023-03-25T18:57:42.381Z,81.72
2023-03-25T19:00:18.902Z,78.83
2023-03-25T19:02:46.774Z,80.16
2023-03-25T19:05:14.989Z,79.96
2023-03-25T19:07:43.783Z,79.92
2023-03-25T19:10:16.393Z,80.18
2023-03-25T19:12:45.938Z,78.83
2023-03-25T19:15:16.250Z,76.86
2023-03-25T19:17:44.916Z,75.59
2023-03-25T19:20:18.091Z,76.61
2023-03-25T19:22:47.079Z,78.82
2023-03-25T19:25:16.225Z,80.83
2023-03-25T19:27:44.054Z,79.73
2023-03-25T19:30:13.788Z,76.84
2023-03-25T19:32:42.706Z,78.20
2023-03-25T19:35:12.581Z,79.08
2023-03-25T19:37:47.392Z,80.52
2023-03-25T19:40:18.893Z,81.31
2023-03-25T19:42:47.305Z,79.78
2023-03-25T19:45:15.553Z,79.19
2023-03-25T19:47:45.734Z,78.35
2023-03-25T19:50:15.382Z,78.95
2023-03-25T19:52:43.555Z,77.03
2023-03-25T19:55:11.929Z,76.60
2023-03-25T19:57:41.969Z,79.00
2023-03-25T20:00:13.629Z,77.59
2023-03-25T20:02:41.366Z,80.29
2023-03-25T20:05:11.758Z,77.89
2023-03-25T20:07:41.886Z,77.62
2023-03-25T20:10:19.755Z,81.54
2023-03-25T20:12:50.263Z,78.43
2023-03-25T20:15:19.186Z,77.78
2023-03-25T20:17:46.682Z,78.09
2023-03-25T20:20:14.797Z,79.44
2023-03-25T20:22:42.407Z,84.03
2023-03-25T20:25:11.852Z,79.66
2023-03-25T20:27:40.302Z,79.22
2023-03-25T20:30:11.328Z,81.11
2023-03-25T20:32:41.839Z,80.40
2023-03-25T20:35:12.966Z,82.00
2023-03-25T20:37:41.183Z,80.74
2023-03-25T20:40:11.936Z,82.41
2023-03-25T20:42:40.021Z,81.73
2023-03-25T20:45:10.979Z,78.09
2023-03-25T20:47:38.598Z,80.15
2023-03-25T20:50:07.758Z,80.32
2023-03-25T20:52:36.239Z,79.75
2023-03-25T20:55:05.608Z,79.15
2023-03-25T20:57:33.301Z,78.28
2023-03-25T21:00:00.848Z,81.84
2023-03-25T21:02:29.681Z,79.04
2023-03-25T21:04:58.346Z,91.31
2023-03-25T21:07:29.193Z,87.90
2023-03-25T21:09:57.773Z,83.70
2023-03-25T21:12:36.432Z,79.44
2023-03-25T21:15:11.089Z,77.24
2023-03-25T21:17:39.857Z,81.91
2023-03-25T21:20:09.120Z,81.02
2023-03-25T21:22:42.546Z,84.08
2023-03-25T21:25:10.608Z,80.96
2023-03-25T21:27:39.768Z,80.52
2023-03-25T21:30:09.613Z,75.47
2023-03-25T21:32:37.520Z,80.99
2023-03-25T21:35:07.853Z,80.26
2023-03-25T21:37:39.093Z,82.62
2023-03-25T21:40:11.318Z,77.92
2023-03-25T21:42:39.088Z,81.71
2023-03-25T21:45:08.740Z,77.60
2023-03-25T21:47:36.707Z,72.86
2023-03-25T21:50:09.725Z,78.77
2023-03-25T21:52:38.292Z,84.18
2023-03-25T21:55:08.593Z,86.07
2023-03-25T21:57:38.153Z,80.56
2023-03-25T22:00:08.666Z,80.21
2023-03-25T22:02:36.579Z,81.34
2023-03-25T22:05:04.209Z,84.26
2023-03-25T22:07:33.020Z,80.93
2023-03-25T22:10:00.569Z,82.35
2023-03-25T22:12:28.302Z,82.68
2023-03-25T22:14:55.851Z,83.21
2023-03-25T22:17:23.353Z,83.92
2023-03-25T22:19:51.134Z,85.57
2023-03-25T22:22:20.582Z,83.49
2023-03-25T22:24:50.476Z,87.31
2023-03-25T22:27:18.151Z,86.46
2023-03-25T22:29:46.105Z,87.74
2023-03-25T22:32:13.685Z,85.55
2023-03-25T22:34:41.305Z,83.99
2023-03-25T22:37:08.921Z,84.09
2023-03-25T22:39:36.512Z,84.51
2023-03-25T22:42:05.599Z,84.09
2023-03-25T22:44:33.367Z,85.66
2023-03-25T22:47:01.006Z,85.94
2023-03-25T22:49:28.553Z,87.48
2023-03-25T22:51:56.265Z,84.70
2023-03-25T22:54:24.247Z,83.17
2023-03-25T22:56:51.771Z,84.56
2023-03-25T22:59:20.898Z,84.85
2023-03-25T23:01:48.659Z,82.65
2023-03-25T23:04:16.248Z,82.94
2023-03-25T23:06:48.953Z,84.44
2023-03-25T23:09:38.881Z,83.46
2023-03-25T23:12:06.704Z,83.14
2023-03-25T23:14:35.439Z,84.71
2023-03-25T23:17:03.073Z,85.75
2023-03-25T23:19:30.606Z,84.86
2023-03-25T23:21:59.608Z,88.52
2023-03-25T23:24:27.778Z,88.16
2023-03-25T23:26:55.727Z,87.79
2023-03-25T23:29:23.623Z,86.19
2023-03-25T23:31:52.474Z,85.59
2023-03-25T23:34:19.902Z,84.09
2023-03-25T23:36:47.855Z,87.51
2023-03-25T23:39:17.405Z,87.08
2023-03-25T23:41:44.984Z,87.36
2023-03-25T23:44:13.101Z,85.80
2023-03-25T23:46:41.773Z,85.07
2023-03-25T23:49:11.901Z,83.63
2023-03-25T23:51:42.490Z,85.10
2023-03-25T23:54:12.680Z,81.83
2023-03-25T23:56:41.373Z,84.21
2023-03-25T23:59:09.786Z,86.17
